Time;durP1;ratioP1;P1;durP2;ratioP2;P2;SDS_P1;SDS_P2;PMS_P1;PMS_P2;Temp;Humidity;BMP_temperature;BMP_pressure;BME280_temperature;BME280_humidity;BME280_pressure;Samples;Min_cycle;Max_cycle;Signal;HPM_P1;HPM_P2
2022/09/14 00:01:30;;;;;;;13.13;7.57;;;20.20;99.90;;;;;;5014365;28;20045;-79
2022/09/14 00:04:09;;;;;;;10.70;7.35;;;20.10;99.90;;;;;;5014204;28;20033;-78
2022/09/14 00:06:35;;;;;;;10.68;7.72;;;20.10;99.90;;;;;;5014131;28;20043;-77
2022/09/14 00:09:02;;;;;;;16.30;8.30;;;20.00;99.90;;;;;;5014300;28;20112;-79
2022/09/14 00:11:30;;;;;;;12.45;8.40;;;19.90;99.90;;;;;;5016199;28;20022;-78
2022/09/14 00:13:57;;;;;;;14.65;9.02;;;20.00;99.90;;;;;;5015973;28;20030;-78
2022/09/14 00:16:29;;;;;;;15.20;8.55;;;19.90;99.90;;;;;;5016232;28;20026;-78
2022/09/14 00:19:04;;;;;;;14.18;8.40;;;19.90;99.90;;;;;;5015402;28;20030;-79
2022/09/14 00:21:30;;;;;;;15.10;8.43;;;19.90;99.90;;;;;;5019183;28;20029;-79
2022/09/14 00:23:56;;;;;;;14.38;8.93;;;19.80;99.90;;;;;;5016428;28;20037;-78
2022/09/14 00:26:22;;;;;;;14.50;8.70;;;19.80;99.90;;;;;;5016850;28;20034;-77
2022/09/14 00:28:50;;;;;;;14.30;7.90;;;19.80;99.90;;;;;;5014747;28;20026;-81
2022/09/14 00:31:17;;;;;;;14.35;8.27;;;19.90;99.90;;;;;;5016662;28;20068;-79
2022/09/14 00:33:44;;;;;;;14.13;8.27;;;19.90;99.90;;;;;;5014187;28;20049;-80
2022/09/14 00:36:37;;;;;;;17.85;8.52;;;19.80;99.90;;;;;;5015168;28;20372;-78
2022/09/14 00:39:03;;;;;;;13.15;8.10;;;19.80;99.90;;;;;;5014776;28;20060;-79
2022/09/14 00:41:32;;;;;;;13.25;7.93;;;19.80;99.90;;;;;;5015357;28;20029;-78
2022/09/14 00:44:04;;;;;;;13.35;8.43;;;19.80;99.90;;;;;;5015558;28;20029;-80
2022/09/14 00:46:34;;;;;;;14.38;7.82;;;19.80;99.90;;;;;;5015675;28;20049;-79
2022/09/14 00:49:02;;;;;;;15.48;8.15;;;19.80;99.90;;;;;;5013293;28;20476;-78
2022/09/14 00:51:31;;;;;;;15.32;8.55;;;19.80;99.90;;;;;;5014238;28;20068;-80
2022/09/14 00:53:59;;;;;;;16.15;8.55;;;19.80;99.90;;;;;;5015406;28;20030;-78
2022/09/14 00:56:25;;;;;;;16.85;8.75;;;19.80;99.90;;;;;;5014977;28;20091;-78
2022/09/14 00:58:53;;;;;;;15.02;8.35;;;19.80;99.90;;;;;;5014714;28;20121;-78
2022/09/14 01:01:19;;;;;;;13.95;8.75;;;19.80;99.90;;;;;;5013857;28;20029;-77
2022/09/14 01:03:44;;;;;;;17.20;8.82;;;19.80;99.90;;;;;;5013047;28;20029;-77
2022/09/14 01:06:25;;;;;;;12.73;8.15;;;19.80;99.90;;;;;;5013741;28;20045;-77
2022/09/14 01:09:08;;;;;;;18.23;8.40;;;19.80;99.90;;;;;;5014471;28;20167;-77
2022/09/14 01:12:09;;;;;;;14.70;7.90;;;19.80;99.90;;;;;;5014796;28;20034;-77
2022/09/14 01:14:41;;;;;;;19.35;7.85;;;19.80;99.90;;;;;;5014318;28;20026;-77
2022/09/14 01:17:25;;;;;;;;;;;19.80;99.90;;;;;;5015458;28;20468;-77
2022/09/14 01:20:30;;;;;;;13.82;7.95;;;19.80;99.90;;;;;;5014766;28;19905;-78
2022/09/14 01:23:31;;;;;;;10.98;7.13;;;19.70;99.90;;;;;;4973994;28;20031;-77
2022/09/14 01:26:34;;;;;;;13.20;7.65;;;19.70;99.90;;;;;;4959166;28;20160;-81
2022/09/14 01:29:15;;;;;;;13.13;8.13;;;19.70;99.90;;;;;;4960175;28;20027;-81
2022/09/14 01:31:58;;;;;;;13.10;7.35;;;19.60;99.90;;;;;;4975557;28;20046;-82
2022/09/14 01:34:33;;;;;;;15.90;7.43;;;19.60;99.90;;;;;;4959493;28;20129;-81
2022/09/14 01:37:11;;;;;;;12.35;7.15;;;19.60;99.90;;;;;;4958884;28;20175;-78
2022/09/14 01:39:42;;;;;;;15.93;7.25;;;19.60;99.90;;;;;;4973514;28;20186;-78
2022/09/14 01:42:11;;;;;;;11.55;7.00;;;19.50;99.90;;;;;;4957853;28;20027;-79
2022/09/14 01:44:41;;;;;;;11.40;6.75;;;19.50;99.90;;;;;;4956975;28;20039;-79
2022/09/14 01:47:22;;;;;;;13.57;7.47;;;19.50;99.90;;;;;;4956952;28;20185;-79
2022/09/14 01:49:56;;;;;;;11.13;7.10;;;19.40;99.90;;;;;;4957056;28;20031;-81
2022/09/14 01:52:27;;;;;;;12.65;6.85;;;19.40;99.90;;;;;;4957686;28;20035;-81
2022/09/14 01:55:01;;;;;;;10.98;6.10;;;19.40;99.90;;;;;;5014240;28;20455;-81
2022/09/14 01:57:37;;;;;;;12.95;6.82;;;19.40;99.90;;;;;;5014920;28;20079;-81
2022/09/14 02:00:10;;;;;;;13.65;7.25;;;19.40;99.90;;;;;;5014149;28;20455;-82
2022/09/14 02:02:40;;;;;;;13.95;7.03;;;19.40;99.90;;;;;;5013983;28;20022;-82
2022/09/14 02:05:11;;;;;;;10.82;7.07;;;19.40;99.90;;;;;;5013724;28;20034;-77
2022/09/14 02:07:37;;;;;;;11.27;6.63;;;19.40;99.90;;;;;;5012684;28;20129;-79
2022/09/14 02:10:10;;;;;;;13.75;7.10;;;19.40;99.90;;;;;;5012508;28;20065;-78
2022/09/14 02:12:36;;;;;;;11.57;6.50;;;19.30;99.90;;;;;;5015368;28;20498;-79
2022/09/14 02:15:03;;;;;;;10.00;6.72;;;19.30;99.90;;;;;;5013792;28;20033;-78
2022/09/14 02:17:30;;;;;;;14.15;7.68;;;19.30;99.90;;;;;;5014143;28;20132;-79
2022/09/14 02:19:59;;;;;;;12.55;7.43;;;19.30;99.90;;;;;;5013818;28;20022;-80
2022/09/14 02:22:26;;;;;;;14.93;7.47;;;19.30;99.90;;;;;;5012980;28;20076;-82
2022/09/14 02:24:53;;;;;;;14.95;8.00;;;19.20;99.90;;;;;;5013068;28;20025;-78
2022/09/14 02:27:19;;;;;;;12.05;7.20;;;19.20;99.90;;;;;;5011706;28;20032;-78
2022/09/14 02:29:44;;;;;;;13.18;7.45;;;19.20;99.90;;;;;;5012774;28;20022;-78
2022/09/14 02:32:27;;;;;;;10.00;6.68;;;19.10;99.90;;;;;;5012153;28;20084;-78
2022/09/14 02:35:04;;;;;;;11.82;7.20;;;19.00;99.90;;;;;;5011844;28;20050;-77
2022/09/14 02:37:43;;;;;;;11.95;6.88;;;19.10;99.90;;;;;;5013523;28;20025;-78
2022/09/14 02:40:11;;;;;;;13.05;6.70;;;19.10;99.90;;;;;;5012328;28;20052;-78
2022/09/14 02:42:56;;;;;;;12.55;6.85;;;19.10;99.90;;;;;;5008417;28;20030;-78
2022/09/14 02:45:52;;;;;;;12.77;7.28;;;19.20;99.90;;;;;;5011068;28;20098;-81
2022/09/14 02:48:31;;;;;;;11.50;6.70;;;19.10;99.90;;;;;;5011597;28;20490;-80
2022/09/14 02:51:30;;;;;;;13.18;6.38;;;19.20;99.90;;;;;;5010564;28;20026;-80
2022/09/14 02:54:00;;;;;;;15.60;7.47;;;19.10;99.90;;;;;;4998729;28;20061;-76
2022/09/14 02:56:28;;;;;;;14.57;7.07;;;19.20;99.90;;;;;;5010654;28;20117;-77
2022/09/14 02:58:53;;;;;;;11.43;6.95;;;19.00;99.90;;;;;;5012544;28;20018;-80
2022/09/14 03:01:20;;;;;;;14.50;6.32;;;19.00;99.90;;;;;;5013178;28;20049;-78
2022/09/14 03:03:46;;;;;;;10.70;6.90;;;19.00;99.90;;;;;;5012680;28;20034;-78
2022/09/14 03:06:12;;;;;;;12.13;6.95;;;19.00;99.90;;;;;;5011579;28;20376;-78
2022/09/14 03:08:38;;;;;;;9.63;6.57;;;19.00;99.90;;;;;;5011724;28;20026;-79
2022/09/14 03:11:04;;;;;;;10.95;6.97;;;19.00;99.90;;;;;;5023328;28;20026;-78
2022/09/14 03:13:30;;;;;;;9.98;6.57;;;19.00;99.90;;;;;;5036705;28;20100;-78
2022/09/14 03:15:56;;;;;;;11.55;6.97;;;19.00;99.90;;;;;;5036218;28;20085;-78
2022/09/14 03:18:21;;;;;;;11.88;6.80;;;19.00;99.90;;;;;;5036753;28;20025;-78
2022/09/14 03:20:47;;;;;;;11.70;6.80;;;19.00;99.90;;;;;;5035056;28;20025;-79
2022/09/14 03:23:13;;;;;;;12.80;7.05;;;19.00;99.90;;;;;;5035379;28;20029;-79
2022/09/14 03:25:43;;;;;;;11.80;6.45;;;19.00;99.90;;;;;;5035711;28;20459;-79
2022/09/14 03:28:10;;;;;;;11.70;6.03;;;19.00;99.90;;;;;;5034805;28;20030;-79
2022/09/14 03:30:36;;;;;;;12.63;6.95;;;19.00;99.90;;;;;;5036486;28;20445;-79
2022/09/14 03:33:02;;;;;;;11.38;6.65;;;19.00;99.90;;;;;;5035567;28;20064;-79
2022/09/14 03:35:30;;;;;;;11.60;6.70;;;19.00;99.90;;;;;;5035417;28;20477;-79
2022/09/14 03:37:56;;;;;;;10.43;6.43;;;19.00;99.90;;;;;;5035573;28;20029;-79
2022/09/14 03:40:22;;;;;;;11.32;6.47;;;18.90;99.90;;;;;;5035038;28;20116;-79
2022/09/14 03:42:49;;;;;;;12.98;6.65;;;18.90;99.90;;;;;;5034390;28;20029;-79
2022/09/14 03:45:16;;;;;;;10.65;6.30;;;18.90;99.90;;;;;;5036214;28;20026;-79
2022/09/14 03:47:42;;;;;;;13.20;6.10;;;18.80;99.90;;;;;;5034836;28;20103;-79
2022/09/14 03:50:10;;;;;;;11.85;5.97;;;18.90;99.90;;;;;;5035569;28;20037;-79
2022/09/14 03:52:36;;;;;;;10.77;7.00;;;18.90;99.90;;;;;;5036020;28;20021;-79
2022/09/14 03:55:03;;;;;;;10.80;6.25;;;18.90;99.90;;;;;;5035384;28;20036;-78
2022/09/14 03:57:29;;;;;;;9.63;5.97;;;18.80;99.90;;;;;;5034592;28;20021;-78
2022/09/14 03:59:54;;;;;;;8.27;5.22;;;18.80;99.90;;;;;;5035207;28;20033;-78
2022/09/14 04:02:20;;;;;;;10.43;6.15;;;18.90;99.90;;;;;;5034516;28;20033;-78
2022/09/14 04:04:47;;;;;;;8.20;5.28;;;18.80;99.90;;;;;;5034243;28;20026;-78
2022/09/14 04:07:14;;;;;;;11.18;6.53;;;18.80;99.90;;;;;;5034127;28;20090;-78
2022/09/14 04:09:40;;;;;;;9.25;5.38;;;18.80;99.90;;;;;;5034048;28;20110;-78
2022/09/14 04:12:06;;;;;;;10.30;5.25;;;18.80;99.90;;;;;;5013975;28;20033;-78
2022/09/14 04:14:32;;;;;;;7.70;5.28;;;18.90;99.90;;;;;;5014502;28;20088;-79
2022/09/14 04:16:57;;;;;;;10.25;5.35;;;18.90;99.90;;;;;;5014258;28;20026;-78
2022/09/14 04:19:23;;;;;;;14.82;6.35;;;18.80;99.90;;;;;;5015671;28;20034;-79
2022/09/14 04:21:48;;;;;;;7.10;4.97;;;18.90;99.90;;;;;;5015005;28;20034;-78
2022/09/14 04:24:15;;;;;;;10.38;6.03;;;18.90;99.90;;;;;;5013259;28;20455;-79
2022/09/14 04:26:41;;;;;;;8.45;5.55;;;18.80;99.90;;;;;;5015552;28;20053;-79
2022/09/14 04:29:07;;;;;;;8.82;5.55;;;18.90;99.90;;;;;;5015288;28;20022;-79
2022/09/14 04:31:33;;;;;;;10.48;5.95;;;18.90;99.90;;;;;;5014236;28;20033;-78
2022/09/14 04:33:59;;;;;;;8.57;5.38;;;18.90;99.90;;;;;;5015093;28;20053;-78
2022/09/14 04:36:28;;;;;;;9.15;4.93;;;18.90;99.90;;;;;;5015743;28;20030;-78
2022/09/14 04:38:55;;;;;;;8.98;5.57;;;18.90;99.90;;;;;;5014094;28;20033;-78
2022/09/14 04:41:21;;;;;;;8.82;5.38;;;18.90;99.90;;;;;;5028166;28;20029;-78
2022/09/14 04:43:49;;;;;;;9.32;5.38;;;18.90;99.90;;;;;;5034937;28;20018;-78
2022/09/14 04:46:21;;;;;;;9.43;5.70;;;18.90;99.90;;;;;;5033800;28;20033;-78
2022/09/14 04:48:47;;;;;;;8.00;5.40;;;18.90;99.90;;;;;;5033850;28;20029;-78
2022/09/14 04:51:16;;;;;;;10.50;5.80;;;18.90;99.90;;;;;;5034489;28;20156;-78
2022/09/14 04:53:43;;;;;;;8.93;5.50;;;18.90;99.90;;;;;;5034125;28;20171;-79
2022/09/14 04:56:11;;;;;;;7.68;4.97;;;18.90;99.90;;;;;;5033441;28;20022;-79
2022/09/14 04:58:41;;;;;;;10.15;5.75;;;18.90;99.90;;;;;;5033896;28;20112;-79
2022/09/14 05:01:10;;;;;;;8.07;5.50;;;18.80;99.90;;;;;;5034440;28;20033;-78
2022/09/14 05:03:40;;;;;;;7.78;5.07;;;18.80;99.90;;;;;;5033541;28;20029;-78
2022/09/14 05:06:07;;;;;;;9.13;5.57;;;18.90;99.90;;;;;;5033204;28;20061;-78
2022/09/14 05:08:35;;;;;;;8.27;5.65;;;18.90;99.90;;;;;;5033382;28;20032;-78
2022/09/14 05:11:01;;;;;;;8.10;5.38;;;18.90;99.90;;;;;;5032569;28;20474;-78
2022/09/14 05:13:27;;;;;;;9.77;5.90;;;18.80;99.90;;;;;;5033680;28;20128;-78
2022/09/14 05:15:53;;;;;;;10.00;5.10;;;18.80;99.90;;;;;;5032803;28;20072;-77
2022/09/14 05:18:18;;;;;;;10.38;6.00;;;18.80;99.90;;;;;;5034357;28;20049;-78
2022/09/14 05:20:44;;;;;;;8.38;5.43;;;18.80;99.90;;;;;;5033443;28;20052;-78
2022/09/14 05:23:10;;;;;;;8.93;6.03;;;18.80;99.90;;;;;;5032558;28;20403;-78
2022/09/14 05:25:36;;;;;;;12.02;5.82;;;18.80;99.90;;;;;;5032936;28;20061;-78
2022/09/14 05:28:02;;;;;;;12.23;6.30;;;18.80;99.90;;;;;;5032463;28;20029;-78
2022/09/14 05:30:27;;;;;;;11.85;6.43;;;18.80;99.90;;;;;;5033032;28;20025;-78
2022/09/14 05:32:53;;;;;;;11.10;6.10;;;18.90;99.90;;;;;;5032048;28;20375;-78
2022/09/14 05:35:19;;;;;;;10.10;6.10;;;18.80;99.90;;;;;;5032583;28;20034;-78
2022/09/14 05:37:44;;;;;;;9.57;6.43;;;18.90;99.90;;;;;;5032958;28;20025;-78
2022/09/14 05:40:10;;;;;;;12.63;8.40;;;18.90;99.90;;;;;;5032325;28;20072;-78
2022/09/14 05:42:36;;;;;;;10.85;6.97;;;18.90;99.90;;;;;;5033719;28;20031;-80
2022/09/14 05:45:01;;;;;;;10.52;6.90;;;18.80;99.90;;;;;;5032185;28;20025;-79
2022/09/14 05:47:30;;;;;;;12.38;7.28;;;18.80;99.90;;;;;;5034234;28;20032;-79
2022/09/14 05:49:56;;;;;;;10.90;6.93;;;18.80;99.90;;;;;;5033499;28;20032;-79
2022/09/14 05:52:23;;;;;;;12.32;7.78;;;18.90;99.90;;;;;;5033817;28;20106;-79
2022/09/14 05:54:49;;;;;;;11.80;7.57;;;19.00;99.90;;;;;;5032776;28;20563;-80
2022/09/14 05:57:14;;;;;;;11.60;7.25;;;18.90;99.90;;;;;;5032105;28;20061;-79
2022/09/14 05:59:40;;;;;;;11.95;7.82;;;18.90;99.90;;;;;;5033839;28;20025;-79
2022/09/14 06:02:05;;;;;;;12.82;7.13;;;18.90;99.90;;;;;;5033151;28;20029;-79
2022/09/14 06:04:31;;;;;;;11.77;7.13;;;18.90;99.90;;;;;;5032202;28;20033;-80
2022/09/14 06:06:57;;;;;;;9.63;6.28;;;19.00;99.90;;;;;;5032927;28;20036;-79
2022/09/14 06:09:23;;;;;;;13.75;7.13;;;19.00;99.90;;;;;;5032331;28;20390;-79
2022/09/14 06:11:51;;;;;;;9.55;6.47;;;19.00;99.90;;;;;;5031889;28;20029;-79
2022/09/14 06:14:19;;;;;;;11.50;7.00;;;19.00;99.90;;;;;;5031778;28;20375;-79
2022/09/14 06:16:45;;;;;;;10.25;6.97;;;19.00;99.90;;;;;;5032475;28;20493;-79
2022/09/14 06:19:13;;;;;;;11.40;7.20;;;19.00;99.90;;;;;;5031330;28;20475;-79
2022/09/14 06:21:38;;;;;;;14.18;8.65;;;19.00;99.90;;;;;;5032341;28;20124;-79
2022/09/14 06:24:04;;;;;;;14.82;8.63;;;19.00;99.90;;;;;;5032816;28;20416;-79
2022/09/14 06:26:30;;;;;;;22.48;12.32;;;19.00;99.90;;;;;;5032021;28;20613;-80
2022/09/14 06:28:56;;;;;;;12.35;7.80;;;19.10;99.90;;;;;;5032648;28;20033;-78
2022/09/14 06:31:24;;;;;;;12.65;7.40;;;19.10;99.90;;;;;;5032203;28;20029;-80
2022/09/14 06:33:50;;;;;;;12.43;7.28;;;19.10;99.90;;;;;;5033240;28;20052;-79
2022/09/14 06:36:18;;;;;;;13.68;7.45;;;19.10;99.90;;;;;;5031411;28;20269;-79
2022/09/14 06:38:45;;;;;;;11.15;7.13;;;19.10;99.90;;;;;;5031823;28;20057;-80
2022/09/14 06:41:13;;;;;;;11.55;7.10;;;19.20;99.90;;;;;;5021761;28;20459;-80
2022/09/14 06:43:41;;;;;;;11.48;7.30;;;19.20;99.90;;;;;;5013431;28;20057;-79
2022/09/14 06:46:13;;;;;;;13.00;7.45;;;19.20;99.90;;;;;;5011785;28;20112;-79
2022/09/14 06:48:49;;;;;;;12.13;7.68;;;19.30;99.90;;;;;;5016166;28;20022;-79
2022/09/14 06:51:24;;;;;;;13.90;7.68;;;19.30;99.90;;;;;;5015696;28;20061;-79
2022/09/14 06:53:50;;;;;;;12.27;7.45;;;19.20;99.90;;;;;;5016381;28;20038;-79
2022/09/14 06:56:17;;;;;;;13.48;7.57;;;19.30;99.90;;;;;;5015660;28;20033;-79
2022/09/14 06:58:43;;;;;;;14.60;8.05;;;19.30;99.90;;;;;;5017479;28;20026;-79
2022/09/14 07:01:15;;;;;;;14.75;8.90;;;19.30;99.90;;;;;;5015730;28;20030;-79
2022/09/14 07:03:45;;;;;;;11.85;7.78;;;19.30;99.90;;;;;;5016114;28;20034;-79
2022/09/14 07:06:21;;;;;;;12.73;8.13;;;19.30;99.90;;;;;;5015334;28;20041;-79
2022/09/14 07:08:48;;;;;;;11.43;8.25;;;19.30;99.90;;;;;;5016993;28;20771;-79
2022/09/14 07:11:18;;;;;;;16.30;9.52;;;19.30;99.90;;;;;;5028259;28;20093;-79
2022/09/14 07:13:45;;;;;;;15.40;9.15;;;19.40;99.90;;;;;;5035620;28;20132;-79
2022/09/14 07:16:11;;;;;;;14.45;8.68;;;19.40;99.90;;;;;;5036524;28;20021;-79
2022/09/14 07:18:37;;;;;;;16.70;9.07;;;19.40;99.90;;;;;;5035825;28;20043;-80
2022/09/14 07:21:07;;;;;;;17.55;9.88;;;19.50;99.90;;;;;;5036170;28;20068;-79
2022/09/14 07:23:35;;;;;;;15.18;9.15;;;19.60;99.90;;;;;;5037149;28;20490;-80
2022/09/14 07:26:07;;;;;;;14.13;9.63;;;19.60;99.90;;;;;;5036150;28;20026;-79
2022/09/14 07:28:33;;;;;;;12.20;8.73;;;19.60;99.90;;;;;;5035588;28;20116;-79
2022/09/14 07:31:00;;;;;;;13.30;8.70;;;19.70;99.90;;;;;;5035240;28;20037;-78
2022/09/14 07:33:26;;;;;;;15.43;9.50;;;19.70;99.90;;;;;;5035022;28;20053;-79
2022/09/14 07:35:52;;;;;;;17.10;9.40;;;19.70;99.90;;;;;;5035314;28;20128;-80
2022/09/14 07:38:18;;;;;;;15.27;9.20;;;19.70;99.90;;;;;;5035956;28;20445;-79
2022/09/14 07:40:45;;;;;;;14.95;8.68;;;19.70;99.90;;;;;;5035477;28;20116;-80
2022/09/14 07:43:11;;;;;;;12.98;8.55;;;19.70;99.90;;;;;;5034772;28;20068;-76
2022/09/14 07:45:37;;;;;;;16.15;9.15;;;19.70;99.90;;;;;;5035025;28;20052;-76
2022/09/14 07:48:03;;;;;;;13.57;9.15;;;19.70;99.90;;;;;;5034277;28;20432;-77
2022/09/14 07:50:29;;;;;;;15.88;8.40;;;19.80;99.90;;;;;;5035283;28;20037;-77
2022/09/14 07:52:55;;;;;;;14.05;8.55;;;19.90;99.90;;;;;;5036066;28;20166;-77
2022/09/14 07:55:20;;;;;;;14.30;9.43;;;19.90;99.90;;;;;;5035536;28;20198;-77
2022/09/14 07:57:46;;;;;;;13.57;8.77;;;19.90;99.90;;;;;;5035766;28;20022;-77
2022/09/14 08:00:13;;;;;;;15.02;8.85;;;20.10;99.90;;;;;;5034214;28;20057;-77
2022/09/14 08:02:39;;;;;;;14.55;8.20;;;20.20;99.90;;;;;;5035797;28;20099;-77
2022/09/14 08:05:05;;;;;;;15.32;7.80;;;20.20;99.90;;;;;;5034172;28;20072;-76
2022/09/14 08:07:31;;;;;;;11.52;7.40;;;20.30;99.90;;;;;;5022326;28;20037;-77
2022/09/14 08:09:56;;;;;;;13.82;7.72;;;20.40;99.90;;;;;;5018188;28;20026;-78
2022/09/14 08:12:22;;;;;;;11.98;7.57;;;20.50;99.90;;;;;;5035018;28;20044;-77
2022/09/14 08:14:50;;;;;;;13.05;6.80;;;20.50;99.90;;;;;;5034423;28;20463;-77
2022/09/14 08:17:15;;;;;;;11.15;6.72;;;20.50;99.90;;;;;;5033807;28;20031;-77
2022/09/14 08:19:41;;;;;;;12.85;6.50;;;20.60;99.90;;;;;;5035330;28;20029;-77
2022/09/14 08:22:07;;;;;;;13.85;6.88;;;20.70;99.90;;;;;;5033674;28;20033;-78
2022/09/14 08:24:33;;;;;;;11.27;6.03;;;20.80;99.90;;;;;;5033914;28;20040;-77
2022/09/14 08:26:58;;;;;;;9.85;6.15;;;20.80;99.90;;;;;;5033965;28;20029;-78
2022/09/14 08:29:24;;;;;;;10.75;5.75;;;20.90;99.90;;;;;;5033389;28;20029;-77
2022/09/14 08:31:51;;;;;;;7.63;5.10;;;21.00;99.90;;;;;;5034023;28;20045;-80
2022/09/14 08:34:18;;;;;;;11.63;5.28;;;21.10;99.90;;;;;;5032985;28;20403;-80
2022/09/14 08:36:45;;;;;;;10.82;5.28;;;21.10;99.90;;;;;;5034963;28;20053;-78
2022/09/14 08:39:13;;;;;;;9.18;5.15;;;21.20;99.90;;;;;;5034510;28;20040;-77
2022/09/14 08:41:44;;;;;;;7.72;4.68;;;21.30;99.90;;;;;;5034140;28;20467;-78
2022/09/14 08:44:37;;;;;;;10.98;5.05;;;21.30;99.90;;;;;;5033484;28;20422;-79
2022/09/14 08:47:18;;;;;;;7.30;4.43;;;21.30;99.90;;;;;;5035141;28;20045;-78
2022/09/14 08:50:04;;;;;;;8.77;4.70;;;21.30;99.90;;;;;;5033267;28;20111;-77
2022/09/14 08:52:38;;;;;;;10.00;5.63;;;21.30;99.90;;;;;;5018519;28;20038;-78
2022/09/14 08:55:25;;;;;;;10.88;6.05;;;21.30;99.90;;;;;;5014315;28;20470;-78
2022/09/14 08:58:13;;;;;;;9.00;4.90;;;21.30;99.90;;;;;;5014028;28;20025;-78
2022/09/14 09:00:48;;;;;;;7.20;4.57;;;21.40;99.90;;;;;;5014229;28;20034;-81
2022/09/14 09:03:24;;;;;;;7.32;3.60;;;21.40;99.90;;;;;;5013644;28;20068;-78
2022/09/14 09:06:12;;;;;;;6.28;3.85;;;21.50;99.90;;;;;;5013693;28;20053;-78
2022/09/14 09:08:55;;;;;;;7.85;3.78;;;21.70;99.90;;;;;;5013560;28;20113;-78
2022/09/14 09:11:25;;;;;;;6.28;3.33;;;21.70;99.90;;;;;;5027219;28;20425;-79
2022/09/14 09:13:51;;;;;;;3.90;3.08;;;21.70;99.90;;;;;;5033458;28;20033;-78
2022/09/14 09:16:22;;;;;;;7.78;3.65;;;21.60;99.90;;;;;;5033992;28;20021;-78
2022/09/14 09:18:57;;;;;;;5.43;2.95;;;21.60;99.90;;;;;;5033547;28;20124;-78
2022/09/14 09:21:28;;;;;;;4.65;3.10;;;21.70;99.90;;;;;;5034023;28;20441;-78
2022/09/14 09:24:17;;;;;;;6.32;3.03;;;21.80;99.90;;;;;;5034593;28;20025;-78
2022/09/14 09:26:43;;;;;;;8.32;3.20;;;21.90;99.90;;;;;;5034397;28;20124;-78
2022/09/14 09:29:10;;;;;;;7.22;2.75;;;22.00;99.90;;;;;;5032734;28;20470;-78
2022/09/14 09:31:38;;;;;;;4.22;2.67;;;22.00;99.90;;;;;;5034373;28;20061;-78
2022/09/14 09:34:05;;;;;;;7.25;2.90;;;22.10;99.90;;;;;;5032639;28;20045;-78
2022/09/14 09:36:38;;;;;;;4.65;2.63;;;22.10;99.90;;;;;;5033559;28;20459;-79
2022/09/14 09:39:04;;;;;;;5.63;2.72;;;22.10;99.90;;;;;;5033268;28;20504;-79
2022/09/14 09:41:56;;;;;;;5.53;3.30;;;22.20;99.90;;;;;;5032759;28;20037;-79
2022/09/14 09:44:22;;;;;;;5.22;3.20;;;22.30;99.90;;;;;;4995669;28;20360;-79
2022/09/14 09:46:57;;;;;;;4.20;3.03;;;22.40;99.90;;;;;;5034152;28;20032;-79
2022/09/14 09:49:30;;;;;;;7.22;3.03;;;22.40;99.90;;;;;;5032251;28;20497;-78
2022/09/14 09:52:09;;;;;;;4.82;2.38;;;22.50;99.90;;;;;;5032873;28;20037;-79
2022/09/14 09:54:38;;;;;;;10.15;3.30;;;22.50;99.90;;;;;;5033827;28;20524;-79
2022/09/14 09:57:17;;;;;;;4.22;3.00;;;22.60;99.90;;;;;;5032920;28;20025;-79
2022/09/14 09:59:45;;;;;;;4.60;2.90;;;22.60;99.90;;;;;;5033205;28;20029;-79
2022/09/14 10:02:30;;;;;;;5.85;2.97;;;22.70;99.90;;;;;;5033330;28;20470;-78
2022/09/14 10:05:10;;;;;;;3.90;2.85;;;22.70;99.90;;;;;;5033702;28;20032;-78
2022/09/14 10:07:50;;;;;;;3.17;2.58;;;22.80;99.90;;;;;;5032901;28;20032;-79
2022/09/14 10:10:18;;;;;;;5.63;2.45;;;22.90;99.90;;;;;;5032157;28;20025;-79
2022/09/14 10:12:50;;;;;;;7.50;2.88;;;23.00;99.90;;;;;;5033444;28;20037;-79
2022/09/14 10:15:26;;;;;;;5.05;2.42;;;23.00;99.90;;;;;;5033213;28;20080;-78
2022/09/14 10:18:06;;;;;;;4.07;2.35;;;23.10;99.90;;;;;;5033761;28;20459;-79
2022/09/14 10:20:32;;;;;;;5.75;2.60;;;23.20;99.90;;;;;;5032275;28;20032;-79
2022/09/14 10:23:17;;;;;;;3.97;2.67;;;23.20;99.90;;;;;;5032431;28;20025;-78
2022/09/14 10:25:53;;;;;;;3.90;1.85;;;23.30;99.90;;;;;;5032436;28;20037;-78
2022/09/14 10:28:33;;;;;;;4.20;2.35;;;23.40;99.90;;;;;;5031860;28;20087;-79
2022/09/14 10:31:01;;;;;;;4.18;3.03;;;23.40;99.90;;;;;;5033170;28;20068;-78
2022/09/14 10:33:28;;;;;;;7.15;3.70;;;23.60;99.90;;;;;;5032761;28;20064;-78
2022/09/14 10:36:12;;;;;;;3.97;2.22;;;23.70;99.90;;;;;;5033362;28;20049;-79
2022/09/14 10:38:51;;;;;;;6.28;2.30;;;23.80;99.90;;;;;;5032411;28;20022;-78
2022/09/14 10:41:44;;;;;;;6.32;2.20;;;23.90;99.90;;;;;;5021987;28;20022;-78
2022/09/14 10:44:28;;;;;;;3.38;2.00;;;24.10;99.90;;;;;;5012507;28;20033;-79
2022/09/14 10:47:20;;;;;;;8.00;2.20;;;24.20;99.90;;;;;;5013443;28;20026;-79
2022/09/14 10:50:01;;;;;;;6.45;2.35;;;24.10;99.90;;;;;;5012460;28;20026;-79
2022/09/14 10:52:30;;;;;;;2.38;1.75;;;24.10;99.90;;;;;;5012748;28;20058;-79
2022/09/14 10:55:41;;;;;;;2.97;1.98;;;24.10;99.90;;;;;;5012319;28;20034;-79
2022/09/14 10:58:38;;;;;;;8.20;2.28;;;24.00;99.90;;;;;;5013407;28;20026;-78
2022/09/14 11:01:33;;;;;;;3.80;1.98;;;24.10;99.90;;;;;;5013664;28;20057;-78
2022/09/14 11:04:35;;;;;;;7.55;2.25;;;24.20;99.90;;;;;;5012343;28;20030;-78
2022/09/14 11:07:28;;;;;;;5.40;1.98;;;24.30;99.90;;;;;;5013412;28;20026;-78
2022/09/14 11:10:20;;;;;;;3.17;2.03;;;24.30;99.90;;;;;;5014280;28;20162;-79
2022/09/14 11:13:32;;;;;;;5.75;1.90;;;24.30;99.90;;;;;;5031511;28;20033;-79
2022/09/14 11:16:25;;;;;;;5.28;2.25;;;24.30;99.90;;;;;;5032143;28;20117;-79
2022/09/14 11:18:59;;;;;;;4.55;2.00;;;24.40;99.90;;;;;;5032153;28;20078;-79
2022/09/14 11:21:51;;;;;;;4.30;2.25;;;24.70;99.90;;;;;;5032586;28;20036;-79
2022/09/14 11:24:17;;;;;;;6.90;2.20;;;24.80;99.90;;;;;;5031479;28;20034;-78
2022/09/14 11:26:53;;;;;;;3.78;1.73;;;24.90;99.90;;;;;;5031352;28;20033;-79
2022/09/14 11:29:34;;;;;;;4.25;1.70;;;24.90;99.90;;;;;;5031246;28;20031;-79
2022/09/14 11:32:16;;;;;;;7.05;1.92;;;24.90;99.90;;;;;;5031989;28;20026;-78
2022/09/14 11:34:53;;;;;;;4.25;1.70;;;24.90;99.90;;;;;;5036911;28;20045;-79
2022/09/14 11:37:22;;;;;;;1.92;1.60;;;24.90;99.90;;;;;;5033650;28;20033;-78
2022/09/14 11:40:20;;;;;;;3.20;2.13;;;24.90;99.90;;;;;;5035137;28;20025;-79
2022/09/14 11:42:57;;;;;;;5.05;2.08;;;24.80;99.90;;;;;;5025138;28;20045;-79
2022/09/14 11:45:57;;;;;;;4.90;2.03;;;24.80;99.90;;;;;;5014589;28;20026;-79
2022/09/14 11:48:38;;;;;;;3.67;2.13;;;24.70;99.90;;;;;;5015778;28;20037;-79
2022/09/14 11:51:28;;;;;;;2.72;2.00;;;24.60;99.90;;;;;;5015063;28;20061;-79
2022/09/14 11:53:54;;;;;;;4.05;1.65;;;24.60;99.90;;;;;;5016220;28;20034;-78
2022/09/14 11:56:27;;;;;;;3.13;1.98;;;24.50;99.90;;;;;;5014426;28;20053;-78
2022/09/14 11:59:02;;;;;;;5.10;1.75;;;24.40;99.90;;;;;;5014917;28;20030;-78
2022/09/14 12:01:40;;;;;;;4.20;1.83;;;24.40;99.90;;;;;;5014072;28;20030;-80
2022/09/14 12:04:07;;;;;;;4.63;2.00;;;24.30;99.90;;;;;;5014803;28;20022;-79
2022/09/14 12:06:36;;;;;;;6.35;2.17;;;24.30;99.90;;;;;;5016260;28;20044;-79
2022/09/14 12:09:19;;;;;;;3.63;2.00;;;24.20;99.90;;;;;;5034409;28;20026;-78
2022/09/14 12:11:50;;;;;;;3.92;1.63;;;24.20;99.90;;;;;;5034175;28;20029;-79
2022/09/14 12:14:34;;;;;;;4.82;1.73;;;24.10;99.90;;;;;;5035310;28;20043;-78
2022/09/14 12:17:22;;;;;;;3.38;2.00;;;24.10;99.90;;;;;;5034403;28;20113;-79
2022/09/14 12:19:56;;;;;;;3.08;1.60;;;24.10;99.90;;;;;;5034447;28;20386;-79
2022/09/14 12:22:33;;;;;;;8.25;1.80;;;24.10;99.90;;;;;;5033655;28;20040;-78
2022/09/14 12:25:07;;;;;;;1.90;1.55;;;24.00;99.90;;;;;;5035470;28;20021;-79
2022/09/14 12:27:36;;;;;;;5.22;2.08;;;24.00;99.90;;;;;;5034693;28;20032;-80
2022/09/14 12:30:40;;;;;;;4.40;1.63;;;24.00;99.90;;;;;;5033615;28;20021;-80
2022/09/14 12:33:31;;;;;;;3.83;1.80;;;23.90;99.90;;;;;;5033481;28;20060;-78
2022/09/14 12:36:00;;;;;;;4.30;1.70;;;23.90;99.90;;;;;;5035162;28;20029;-78
2022/09/14 12:38:28;;;;;;;5.82;0.90;;;23.70;99.90;;;;;;5033965;28;20030;-78
2022/09/14 12:40:55;;;;;;;1.88;0.73;;;23.00;99.90;;;;;;5034686;28;20037;-78
2022/09/14 12:43:33;;;;;;;6.53;0.77;;;22.20;99.90;;;;;;5032368;28;20033;-77
2022/09/14 12:46:04;;;;;;;3.70;0.82;;;21.50;99.90;;;;;;5033087;28;20075;-78
2022/09/14 12:48:47;;;;;;;2.03;0.80;;;21.10;99.90;;;;;;5032629;28;20494;-77
2022/09/14 12:54:05;;;;;;;1.08;0.60;;;20.30;99.90;;;;;;5034518;28;20048;-77
2022/09/14 12:56:38;;;;;;;2.47;0.75;;;20.10;99.90;;;;;;5033883;28;20038;-77
2022/09/14 12:59:16;;;;;;;2.25;0.40;;;19.90;99.90;;;;;;5034257;28;20057;-77
2022/09/14 13:02:10;;;;;;;3.00;0.75;;;19.80;99.90;;;;;;5032500;28;20070;-77
2022/09/14 13:04:37;;;;;;;2.17;0.68;;;19.80;99.90;;;;;;5033786;28;20037;-77
2022/09/14 13:07:06;;;;;;;2.35;0.82;;;19.70;99.90;;;;;;5032748;28;20053;-77
2022/09/14 13:09:32;;;;;;;2.45;0.60;;;19.70;99.90;;;;;;5033008;28;20029;-77